createdAt,value
2019-02-16T00:01:56.103Z,12.33
2019-02-16T00:04:25.268Z,12.97
2019-02-16T00:06:54.354Z,12.60
2019-02-16T00:09:24.802Z,11.03
2019-02-16T00:11:55.761Z,11.87
2019-02-16T00:14:25.975Z,9.07
2019-02-16T00:16:58.702Z,10.13
2019-02-16T00:19:27.617Z,12.30
2019-02-16T00:21:56.711Z,11.43
2019-02-16T00:24:27.098Z,11.40
2019-02-16T00:26:56.101Z,13.93
2019-02-16T00:29:26.321Z,13.70
2019-02-16T00:31:57.930Z,9.00
2019-02-16T00:34:27.033Z,10.33
2019-02-16T00:36:57.440Z,11.40
2019-02-16T00:39:26.532Z,12.83
2019-02-16T00:41:55.627Z,13.10
2019-02-16T00:44:26.579Z,17.70
2019-02-16T00:46:55.785Z,11.70
2019-02-16T00:49:26.414Z,13.87
2019-02-16T00:51:57.292Z,8.87
2019-02-16T00:54:29.695Z,14.40
2019-02-16T00:56:58.826Z,10.77
2019-02-16T00:59:29.342Z,10.03
2019-02-16T01:01:58.560Z,14.70
2019-02-16T01:04:32.780Z,11.90
2019-02-16T01:07:06.666Z,8.33
2019-02-16T01:09:35.850Z,9.40
2019-02-16T01:12:04.976Z,12.10
2019-02-16T01:14:35.262Z,14.93
2019-02-16T01:17:05.510Z,10.40
2019-02-16T01:19:37.098Z,9.90
2019-02-16T01:22:06.212Z,10.93
2019-02-16T01:24:36.573Z,12.57
2019-02-16T01:27:05.678Z,10.77
2019-02-16T01:29:35.275Z,9.53
2019-02-16T01:32:04.456Z,10.53
2019-02-16T01:34:33.635Z,15.83
2019-02-16T01:37:02.728Z,11.30
2019-02-16T01:39:32.890Z,12.00
2019-02-16T01:42:02.465Z,15.13
2019-02-16T01:44:36.271Z,10.57
2019-02-16T01:47:09.631Z,9.63
2019-02-16T01:49:40.304Z,8.43
2019-02-16T01:52:11.143Z,9.63
2019-02-16T01:54:41.344Z,12.07
2019-02-16T01:57:10.472Z,8.53
2019-02-16T01:59:41.437Z,8.53
2019-02-16T02:02:15.146Z,12.03
2019-02-16T02:04:44.371Z,9.50
2019-02-16T02:07:13.579Z,10.27
2019-02-16T02:09:47.264Z,9.57
2019-02-16T02:12:16.350Z,10.87
2019-02-16T02:14:45.458Z,12.30
2019-02-16T02:17:14.544Z,9.63
2019-02-16T02:19:44.983Z,9.70
2019-02-16T02:22:15.529Z,11.33
2019-02-16T02:24:44.679Z,10.37
2019-02-16T02:27:14.154Z,10.50
2019-02-16T02:29:47.462Z,10.03
2019-02-16T02:32:19.654Z,9.87
2019-02-16T02:34:48.776Z,10.03
2019-02-16T02:37:22.376Z,10.00
2019-02-16T02:39:51.472Z,16.00
2019-02-16T02:42:23.418Z,11.33
2019-02-16T02:44:56.084Z,12.83
2019-02-16T02:47:25.245Z,13.03
2019-02-16T02:49:54.347Z,14.20
2019-02-16T02:52:25.136Z,11.47
2019-02-16T02:54:58.896Z,11.97
2019-02-16T02:57:30.659Z,12.77
2019-02-16T02:59:59.750Z,10.43
2019-02-16T03:02:28.857Z,7.57
2019-02-16T03:05:01.175Z,11.60
2019-02-16T03:07:35.597Z,11.20
2019-02-16T03:10:05.081Z,11.43
2019-02-16T03:12:35.744Z,11.60
2019-02-16T03:15:05.586Z,13.80
2019-02-16T03:17:34.712Z,15.30
2019-02-16T03:20:04.026Z,14.90
2019-02-16T03:23:25.409Z,11.57
2019-02-16T03:26:20.963Z,11.63
2019-02-16T03:29:17.324Z,11.90
2019-02-16T03:32:37.258Z,12.40
2019-02-16T03:35:40.143Z,10.70
2019-02-16T03:38:44.701Z,12.57
2019-02-16T03:41:16.739Z,14.60
2019-02-16T03:43:45.821Z,9.83
2019-02-16T03:46:18.071Z,9.37
2019-02-16T03:48:47.181Z,10.33
2019-02-16T03:51:18.031Z,14.83
2019-02-16T03:53:48.330Z,11.50
2019-02-16T03:56:19.812Z,9.77
2019-02-16T03:58:48.973Z,9.93
2019-02-16T04:01:18.278Z,13.77
2019-02-16T04:03:47.433Z,10.30
2019-02-16T04:06:16.540Z,10.53
2019-02-16T04:08:49.218Z,12.73
2019-02-16T04:11:18.292Z,12.27
2019-02-16T04:13:47.488Z,10.67
2019-02-16T04:16:17.850Z,9.07
2019-02-16T04:18:47.118Z,12.00
2019-02-16T04:21:20.399Z,12.40
2019-02-16T04:23:51.224Z,8.70
2019-02-16T04:26:20.354Z,15.43
2019-02-16T04:28:52.159Z,10.33
2019-02-16T04:31:22.498Z,11.07
2019-02-16T04:33:51.792Z,10.80
2019-02-16T04:36:20.908Z,9.03
2019-02-16T04:38:49.987Z,11.37
2019-02-16T04:41:19.089Z,10.13
2019-02-16T04:43:49.335Z,8.63
2019-02-16T04:46:18.338Z,9.53
2019-02-16T04:48:47.420Z,8.67
2019-02-16T04:51:16.529Z,10.50
2019-02-16T04:53:47.227Z,12.07
2019-02-16T04:56:16.352Z,7.63
2019-02-16T04:58:45.597Z,11.90
2019-02-16T05:01:14.768Z,9.10
2019-02-16T05:03:54.336Z,9.37
2019-02-16T05:06:23.640Z,6.90
2019-02-16T05:08:53.541Z,11.40
2019-02-16T05:11:25.559Z,11.80
2019-02-16T05:13:54.780Z,10.23
2019-02-16T05:16:24.266Z,8.57
2019-02-16T05:18:54.919Z,10.10
2019-02-16T05:21:24.028Z,9.87
2019-02-16T05:23:53.117Z,10.83
2019-02-16T05:26:22.245Z,10.33
2019-02-16T05:28:51.395Z,9.60
2019-02-16T05:31:20.623Z,10.53
2019-02-16T05:33:51.023Z,8.50
2019-02-16T05:36:23.267Z,11.10
2019-02-16T05:38:52.390Z,9.33
2019-02-16T05:41:22.534Z,10.33
2019-02-16T05:43:53.939Z,8.20
2019-02-16T05:46:24.649Z,7.87
2019-02-16T05:48:56.177Z,13.10
2019-02-16T05:51:25.457Z,10.80
2019-02-16T05:54:02.219Z,11.70
2019-02-16T05:56:31.284Z,10.33
2019-02-16T05:59:01.954Z,11.10
2019-02-16T06:01:31.124Z,10.40
2019-02-16T06:04:01.359Z,12.00
2019-02-16T06:06:30.494Z,11.43
2019-02-16T06:09:02.221Z,12.50
2019-02-16T06:11:32.603Z,15.27
2019-02-16T06:14:01.710Z,15.37
2019-02-16T06:16:33.984Z,11.83
2019-02-16T06:19:06.571Z,15.90
2019-02-16T06:21:35.719Z,16.53
2019-02-16T06:24:05.011Z,13.53
2019-02-16T06:26:34.625Z,13.13
2019-02-16T06:29:05.467Z,14.27
2019-02-16T06:31:42.541Z,13.00
2019-02-16T06:34:11.735Z,17.63
2019-02-16T06:36:42.525Z,8.47
2019-02-16T06:39:16.170Z,12.30
2019-02-16T06:41:46.558Z,8.40
2019-02-16T06:47:01.468Z,9.33
2019-02-16T06:49:30.568Z,12.27
2019-02-16T06:52:03.376Z,9.30
2019-02-16T06:54:32.489Z,12.13
2019-02-16T06:57:26.648Z,11.00
2019-02-16T06:59:59.763Z,9.63
2019-02-16T07:02:30.831Z,13.63
2019-02-16T07:04:59.943Z,8.83
2019-02-16T07:07:32.562Z,9.70
2019-02-16T07:10:01.634Z,8.70
2019-02-16T07:12:30.746Z,10.80
2019-02-16T07:14:59.974Z,9.77
2019-02-16T07:17:48.032Z,10.20
2019-02-16T07:20:19.386Z,8.80
2019-02-16T07:22:53.226Z,14.03
2019-02-16T07:25:22.077Z,12.43
2019-02-16T07:27:51.228Z,13.90
2019-02-16T07:30:20.827Z,11.53
2019-02-16T07:32:50.198Z,10.93
2019-02-16T07:35:19.525Z,11.77
2019-02-16T07:37:49.645Z,12.20
2019-02-16T07:40:28.989Z,10.50
2019-02-16T07:42:58.886Z,13.23
2019-02-16T07:46:03.386Z,10.27
2019-02-16T07:48:37.292Z,13.00
2019-02-16T07:51:34.812Z,11.77
2019-02-16T07:54:23.590Z,14.23
2019-02-16T07:56:57.407Z,14.33
2019-02-16T07:59:52.144Z,11.53
2019-02-16T08:02:31.387Z,14.47
2019-02-16T08:05:11.371Z,15.30
2019-02-16T08:07:59.415Z,11.50
2019-02-16T08:11:04.397Z,12.87
2019-02-16T08:13:48.102Z,12.10
2019-02-16T08:16:30.507Z,11.10
2019-02-16T08:19:17.781Z,14.07
2019-02-16T08:22:02.037Z,11.17
2019-02-16T08:24:53.196Z,12.77
2019-02-16T08:27:44.811Z,13.73
2019-02-16T08:30:43.705Z,14.53
2019-02-16T08:33:46.856Z,14.43
2019-02-16T08:36:47.729Z,18.27
2019-02-16T08:39:38.569Z,10.77
2019-02-16T08:42:32.367Z,14.90
2019-02-16T08:45:22.129Z,15.50
2019-02-16T08:48:42.763Z,13.97
2019-02-16T08:51:40.059Z,9.00
2019-02-16T08:54:26.880Z,11.33
2019-02-16T08:57:21.151Z,9.03
2019-02-16T09:00:09.690Z,13.90
2019-02-16T09:02:49.352Z,14.30
2019-02-16T09:05:46.427Z,14.97
2019-02-16T09:08:40.675Z,12.80
2019-02-16T09:11:32.421Z,9.90
2019-02-16T09:14:19.146Z,12.27
2019-02-16T09:17:07.239Z,11.33
2019-02-16T09:19:51.956Z,12.83
2019-02-16T09:22:42.541Z,11.33
2019-02-16T09:25:46.148Z,11.93
2019-02-16T09:28:22.702Z,13.43
2019-02-16T09:31:11.399Z,14.17
2019-02-16T09:34:00.060Z,18.13
2019-02-16T09:36:56.194Z,13.87
2019-02-16T09:39:59.628Z,15.17
2019-02-16T09:42:47.746Z,13.20
2019-02-16T09:45:53.963Z,12.20
2019-02-16T09:48:31.919Z,19.67
2019-02-16T09:51:13.506Z,12.70
2019-02-16T09:53:52.503Z,13.07
2019-02-16T09:56:52.868Z,12.77
2019-02-16T09:59:47.984Z,14.10
2019-02-16T10:02:29.371Z,16.40
2019-02-16T10:05:17.670Z,15.33
2019-02-16T10:08:12.021Z,16.00
2019-02-16T10:10:50.448Z,14.83
2019-02-16T10:13:42.900Z,15.63
2019-02-16T10:16:51.651Z,13.37
2019-02-16T10:19:28.454Z,12.60
2019-02-16T10:22:15.624Z,12.53
2019-02-16T10:25:02.718Z,18.23
2019-02-16T10:27:53.873Z,14.63
2019-02-16T10:30:44.230Z,10.43
2019-02-16T10:33:21.095Z,14.10
2019-02-16T10:36:08.118Z,12.17
2019-02-16T10:39:02.651Z,12.33
2019-02-16T10:41:50.705Z,13.50
2019-02-16T10:44:37.764Z,10.50
2019-02-16T10:47:28.645Z,9.70
2019-02-16T10:50:15.447Z,11.27
2019-02-16T10:52:57.371Z,13.17
2019-02-16T10:55:45.165Z,15.10
2019-02-16T10:58:20.216Z,11.97
2019-02-16T11:01:03.198Z,14.07
2019-02-16T11:03:50.434Z,12.30
2019-02-16T11:06:44.361Z,13.73
2019-02-16T11:09:47.592Z,17.13
2019-02-16T11:12:38.493Z,11.40
2019-02-16T11:15:33.938Z,13.90
2019-02-16T11:18:24.125Z,11.90
2019-02-16T11:21:08.347Z,12.23
2019-02-16T11:24:02.352Z,11.80
2019-02-16T11:26:56.689Z,10.00
2019-02-16T11:29:35.060Z,16.53
2019-02-16T11:32:26.165Z,11.57
2019-02-16T11:35:14.226Z,11.80
2019-02-16T11:38:02.307Z,10.17
2019-02-16T11:40:38.457Z,15.27
2019-02-16T11:43:41.797Z,11.83
2019-02-16T11:46:36.800Z,14.13
2019-02-16T11:49:37.221Z,11.57
2019-02-16T11:52:36.411Z,11.27
2019-02-16T11:55:24.103Z,13.20
2019-02-16T11:58:13.914Z,11.23
2019-02-16T12:01:03.344Z,12.37
2019-02-16T12:04:00.285Z,13.13
2019-02-16T12:06:56.149Z,13.20
2019-02-16T12:09:45.219Z,13.73
2019-02-16T12:12:37.924Z,11.60
2019-02-16T12:15:24.677Z,10.00
2019-02-16T12:18:18.641Z,12.40
2019-02-16T12:21:05.366Z,9.70
2019-02-16T12:23:41.436Z,11.97
2019-02-16T12:26:26.041Z,11.97
2019-02-16T12:29:12.724Z,15.20
2019-02-16T12:32:21.778Z,10.50
2019-02-16T12:35:12.169Z,10.70
2019-02-16T12:38:13.759Z,10.90
2019-02-16T12:41:00.884Z,10.93
2019-02-16T12:43:50.150Z,9.63
2019-02-16T12:46:30.787Z,9.70
2019-02-16T12:49:11.171Z,12.27
2019-02-16T12:52:02.557Z,11.47
2019-02-16T12:54:53.658Z,13.53
2019-02-16T12:57:39.606Z,9.83
2019-02-16T13:00:38.482Z,11.00
2019-02-16T13:03:23.678Z,11.00
2019-02-16T13:06:03.742Z,8.40
2019-02-16T13:08:56.300Z,7.90
2019-02-16T13:11:38.604Z,7.60
2019-02-16T13:14:34.770Z,9.80
2019-02-16T13:17:25.016Z,8.03
2019-02-16T13:20:11.630Z,8.97
2019-02-16T13:22:59.825Z,9.07
2019-02-16T13:25:43.392Z,8.00
2019-02-16T13:28:38.580Z,11.63
2019-02-16T13:31:38.735Z,10.13
2019-02-16T13:34:22.011Z,11.90
2019-02-16T13:37:21.578Z,12.40
2019-02-16T13:40:10.245Z,10.83
2019-02-16T13:42:58.323Z,10.70
2019-02-16T13:45:37.565Z,13.07
2019-02-16T13:48:15.284Z,10.43
2019-02-16T13:50:55.414Z,13.80
2019-02-16T13:53:50.018Z,17.53
2019-02-16T13:56:39.259Z,16.10
2019-02-16T13:59:27.376Z,18.17
2019-02-16T14:02:15.785Z,12.97
2019-02-16T14:05:09.946Z,14.37
2019-02-16T14:07:54.775Z,16.83
2019-02-16T14:10:40.492Z,15.17
2019-02-16T14:13:31.766Z,11.93
2019-02-16T14:16:08.605Z,19.20
2019-02-16T14:18:44.055Z,13.63
2019-02-16T14:21:14.779Z,18.53
2019-02-16T14:23:43.988Z,15.90
2019-02-16T14:26:17.719Z,19.33
2019-02-16T14:28:48.502Z,19.50
2019-02-16T14:31:28.056Z,19.50
2019-02-16T14:33:50.286Z,17.63
2019-02-16T14:36:22.597Z,18.60
2019-02-16T14:39:27.924Z,18.30
2019-02-16T14:41:58.165Z,16.50
2019-02-16T14:44:27.735Z,15.60
2019-02-16T14:46:56.868Z,17.97
2019-02-16T14:49:25.963Z,17.43
2019-02-16T14:51:56.382Z,23.97
2019-02-16T14:54:25.504Z,15.60
2019-02-16T14:56:58.051Z,15.67
2019-02-16T14:59:27.169Z,18.00
2019-02-16T15:01:56.319Z,18.60
2019-02-16T15:04:27.470Z,17.57
2019-02-16T15:06:59.388Z,19.50
2019-02-16T15:09:29.196Z,22.13
2019-02-16T15:12:03.019Z,20.03
2019-02-16T15:14:32.237Z,16.20
2019-02-16T15:17:04.531Z,19.20
2019-02-16T15:19:33.636Z,20.00
2019-02-16T15:22:02.773Z,25.47
2019-02-16T15:24:33.298Z,15.47
2019-02-16T15:27:04.877Z,17.40
2019-02-16T15:29:33.995Z,18.13
2019-02-16T15:32:04.894Z,14.83
2019-02-16T15:34:41.534Z,17.43
2019-02-16T15:37:15.294Z,19.53
2019-02-16T15:39:44.496Z,15.10
2019-02-16T15:42:21.578Z,14.77
2019-02-16T15:44:52.306Z,15.30
2019-02-16T15:47:21.415Z,15.27
2019-02-16T15:49:58.011Z,19.50
2019-02-16T15:52:33.823Z,20.30
2019-02-16T15:55:02.974Z,14.03
2019-02-16T15:57:33.846Z,13.40
2019-02-16T16:00:04.216Z,11.33
2019-02-16T16:02:33.428Z,17.43
2019-02-16T16:05:05.280Z,13.77
2019-02-16T16:07:34.780Z,14.13
2019-02-16T16:10:28.927Z,16.70
2019-02-16T16:13:17.440Z,13.70
2019-02-16T16:15:55.699Z,21.43
2019-02-16T16:19:02.061Z,17.40
2019-02-16T16:21:48.828Z,17.60
2019-02-16T16:24:27.864Z,16.33
2019-02-16T16:27:22.335Z,16.83
2019-02-16T16:30:14.062Z,20.20
2019-02-16T16:33:08.505Z,14.47
2019-02-16T16:35:53.712Z,17.40
2019-02-16T16:38:38.795Z,20.77
2019-02-16T16:41:18.754Z,19.13
2019-02-16T16:44:23.800Z,22.03
2019-02-16T16:47:01.688Z,17.93
2019-02-16T16:50:00.848Z,18.90
2019-02-16T16:52:48.231Z,17.63
2019-02-16T16:55:41.233Z,14.90
2019-02-16T16:58:31.118Z,16.13
2019-02-16T17:01:22.354Z,20.23
2019-02-16T17:04:28.643Z,16.43
2019-02-16T17:07:27.713Z,16.20
2019-02-16T17:10:32.105Z,16.03
2019-02-16T17:13:19.699Z,13.43
2019-02-16T17:16:17.736Z,14.60
2019-02-16T17:19:01.029Z,16.23
2019-02-16T17:21:57.897Z,13.97
2019-02-16T17:24:46.960Z,11.60
2019-02-16T17:27:35.008Z,15.33
2019-02-16T17:30:23.246Z,17.50
2019-02-16T17:33:17.495Z,16.20
2019-02-16T17:36:04.386Z,13.03
2019-02-16T17:38:53.825Z,20.33
2019-02-16T17:42:04.593Z,16.30
2019-02-16T17:44:51.476Z,11.93
2019-02-16T17:47:39.376Z,14.33
2019-02-16T17:50:16.883Z,17.43
2019-02-16T17:53:05.252Z,21.60
2019-02-16T17:55:47.405Z,17.97
2019-02-16T17:58:23.051Z,18.63
2019-02-16T18:01:01.556Z,16.93
2019-02-16T18:03:58.648Z,25.30
2019-02-16T18:06:45.654Z,30.57
2019-02-16T18:09:29.562Z,27.33
2019-02-16T18:12:19.081Z,20.87
2019-02-16T18:15:14.460Z,24.00
2019-02-16T18:18:05.586Z,18.37
2019-02-16T18:20:42.152Z,23.53
2019-02-16T18:23:18.411Z,23.60
2019-02-16T18:26:05.689Z,24.67
2019-02-16T18:29:05.528Z,26.63
2019-02-16T18:32:05.881Z,30.07
2019-02-16T18:34:53.221Z,50.73
2019-02-16T18:37:41.019Z,42.13
2019-02-16T18:40:30.304Z,45.23
2019-02-16T18:43:21.601Z,48.63
2019-02-16T18:46:09.693Z,35.57
2019-02-16T18:48:56.267Z,48.17
2019-02-16T18:52:00.200Z,41.27
2019-02-16T18:54:37.680Z,31.37
2019-02-16T18:57:46.526Z,37.43
2019-02-16T19:00:25.772Z,32.33
2019-02-16T19:03:07.328Z,34.47
2019-02-16T19:05:55.424Z,25.70
2019-02-16T19:08:44.154Z,29.73
2019-02-16T19:11:31.141Z,23.83
2019-02-16T19:14:22.162Z,23.53
2019-02-16T19:17:24.422Z,23.07
2019-02-16T19:20:06.990Z,25.67
2019-02-16T19:22:57.604Z,35.00
2019-02-16T19:25:37.469Z,31.87
2019-02-16T19:28:32.974Z,31.40
2019-02-16T19:31:28.327Z,25.47
2019-02-16T19:34:17.895Z,53.30
2019-02-16T19:36:57.304Z,29.73
2019-02-16T19:39:39.076Z,29.27
2019-02-16T19:42:19.024Z,31.17
2019-02-16T19:45:13.117Z,23.97
2019-02-16T19:48:05.185Z,20.60
2019-02-16T19:51:02.553Z,22.37
2019-02-16T19:53:53.865Z,26.90
2019-02-16T19:56:44.053Z,24.97
2019-02-16T19:59:35.804Z,28.00
2019-02-16T20:02:24.296Z,28.90
2019-02-16T20:05:19.750Z,43.77
2019-02-16T20:08:17.463Z,38.27
2019-02-16T20:11:12.071Z,24.90
2019-02-16T20:13:51.368Z,30.40
2019-02-16T20:16:42.505Z,27.93
2019-02-16T20:19:19.534Z,24.10
2019-02-16T20:22:10.248Z,23.80
2019-02-16T20:25:11.121Z,25.40
2019-02-16T20:28:03.179Z,21.30
2019-02-16T20:30:57.641Z,29.60
2019-02-16T20:34:05.599Z,19.63
2019-02-16T20:36:53.669Z,22.80
2019-02-16T20:39:41.495Z,20.60
2019-02-16T20:42:32.765Z,23.57
2019-02-16T20:45:33.646Z,26.63
2019-02-16T20:48:19.226Z,25.83
2019-02-16T20:51:18.630Z,24.83
2019-02-16T20:54:02.232Z,27.63
2019-02-16T20:56:40.409Z,22.30
2019-02-16T20:59:30.202Z,23.13
2019-02-16T21:02:09.112Z,21.50
2019-02-16T21:05:16.766Z,21.17
2019-02-16T21:08:05.906Z,26.20
2019-02-16T21:10:56.754Z,23.70
2019-02-16T21:13:39.373Z,20.90
2019-02-16T21:16:26.941Z,23.70
2019-02-16T21:19:10.119Z,22.77
2019-02-16T21:21:58.203Z,22.63
2019-02-16T21:24:36.162Z,27.13
2019-02-16T21:27:26.735Z,26.33
2019-02-16T21:30:14.155Z,21.30
2019-02-16T21:32:53.206Z,25.50
2019-02-16T21:35:40.122Z,23.93
2019-02-16T21:38:19.572Z,23.50
2019-02-16T21:41:22.974Z,21.77
2019-02-16T21:44:03.982Z,17.40
2019-02-16T21:46:50.150Z,17.03
2019-02-16T21:49:39.410Z,23.43
2019-02-16T21:52:29.781Z,21.80
2019-02-16T21:55:20.743Z,21.30
2019-02-16T21:58:12.003Z,22.87
2019-02-16T22:01:12.471Z,19.80
2019-02-16T22:04:16.184Z,20.63
2019-02-16T22:07:01.211Z,22.03
2019-02-16T22:09:54.455Z,22.13
2019-02-16T22:12:51.109Z,20.17
2019-02-16T22:15:21.634Z,20.93
2019-02-16T22:17:58.454Z,16.30
2019-02-16T22:20:35.241Z,19.43
2019-02-16T22:23:07.572Z,21.23
2019-02-16T22:25:42.998Z,20.77
2019-02-16T22:28:28.287Z,19.50
2019-02-16T22:30:51.923Z,19.80
2019-02-16T22:33:23.818Z,26.70
2019-02-16T22:36:00.082Z,20.30
2019-02-16T22:38:29.200Z,20.83
2019-02-16T22:41:01.538Z,20.30
2019-02-16T22:43:30.623Z,19.47
2019-02-16T22:46:01.732Z,21.80
2019-02-16T22:48:30.655Z,15.83
2019-02-16T22:51:00.774Z,18.47
2019-02-16T22:53:29.880Z,18.40
2019-02-16T22:56:00.759Z,19.30
2019-02-16T22:58:38.671Z,20.60
2019-02-16T23:01:13.891Z,17.93
2019-02-16T23:03:43.021Z,13.83
2019-02-16T23:06:12.169Z,21.23
2019-02-16T23:08:41.255Z,16.77
2019-02-16T23:11:16.863Z,14.93
2019-02-16T23:13:48.548Z,18.50
2019-02-16T23:16:17.863Z,20.23
2019-02-16T23:18:49.178Z,18.57
2019-02-16T23:21:26.398Z,16.50
2019-02-16T23:23:55.503Z,21.10
2019-02-16T23:26:24.682Z,18.17
2019-02-16T23:28:58.725Z,18.23
2019-02-16T23:31:28.762Z,19.33
2019-02-16T23:33:57.875Z,24.47
2019-02-16T23:36:29.273Z,17.47
2019-02-16T23:39:00.949Z,18.20
2019-02-16T23:41:30.410Z,23.73
2019-02-16T23:43:59.592Z,17.50
2019-02-16T23:46:33.859Z,18.13
2019-02-16T23:49:03.160Z,17.57
2019-02-16T23:51:32.267Z,18.13
2019-02-16T23:54:02.773Z,17.77
2019-02-16T23:56:38.966Z,17.50
2019-02-16T23:59:11.976Z,18.63
